createdAt,value
2022-09-15T00:02:10.649Z,92.96
2022-09-15T00:04:40.413Z,92.95
2022-09-15T00:07:10.215Z,92.75
2022-09-15T00:09:40.212Z,92.72
2022-09-15T00:12:10.438Z,92.56
2022-09-15T00:14:42.802Z,92.64
2022-09-15T00:17:12.536Z,92.36
2022-09-15T00:19:42.292Z,92.06
2022-09-15T00:22:12.105Z,92.13
2022-09-15T00:24:41.928Z,91.71
2022-09-15T00:27:11.613Z,91.58
2022-09-15T00:29:43.944Z,91.59
2022-09-15T00:32:13.816Z,91.67
2022-09-15T00:34:43.513Z,91.64
2022-09-15T00:37:13.240Z,91.69
2022-09-15T00:39:42.926Z,91.75
2022-09-15T00:42:16.810Z,91.60
2022-09-15T00:44:58.333Z,91.41
2022-09-15T00:47:31.365Z,91.14
2022-09-15T00:50:04.791Z,91.03
2022-09-15T00:52:40.343Z,90.78
2022-09-15T00:55:14.546Z,90.69
2022-09-15T00:57:47.653Z,90.79
2022-09-15T01:00:23.273Z,90.74
2022-09-15T01:02:53.714Z,90.62
2022-09-15T01:05:26.271Z,90.66
2022-09-15T01:08:00.770Z,90.50
2022-09-15T01:10:32.051Z,90.46
2022-09-15T01:13:04.165Z,90.39
2022-09-15T01:15:45.934Z,90.08
2022-09-15T01:18:23.435Z,89.78
2022-09-15T01:21:24.821Z,89.34
2022-09-15T01:24:24.238Z,89.05
2022-09-15T01:27:18.456Z,88.60
2022-09-15T01:30:20.177Z,88.34
2022-09-15T01:33:07.853Z,88.10
2022-09-15T01:35:59.057Z,87.76
2022-09-15T01:38:40.677Z,87.78
2022-09-15T01:41:17.571Z,87.98
2022-09-15T01:43:53.300Z,88.23
2022-09-15T01:46:28.376Z,88.16
2022-09-15T01:49:02.379Z,88.40
2022-09-15T01:51:34.841Z,88.07
2022-09-15T01:54:07.001Z,88.13
2022-09-15T01:56:37.077Z,88.22
2022-09-15T01:59:06.856Z,88.12
2022-09-15T02:01:47.382Z,88.25
2022-09-15T02:04:21.788Z,88.28
2022-09-15T02:06:56.069Z,88.43
2022-09-15T02:09:31.907Z,88.63
2022-09-15T02:12:08.767Z,88.80
2022-09-15T02:14:50.769Z,89.16
2022-09-15T02:17:24.903Z,89.45
2022-09-15T02:19:59.171Z,90.05
2022-09-15T02:22:33.533Z,90.31
2022-09-15T02:25:07.481Z,90.66
2022-09-15T02:27:40.700Z,90.92
2022-09-15T02:30:14.634Z,91.00
2022-09-15T02:32:51.700Z,90.93
2022-09-15T02:35:21.911Z,90.72
2022-09-15T02:37:52.015Z,90.64
2022-09-15T02:40:22.138Z,90.39
2022-09-15T02:42:56.789Z,90.02
2022-09-15T02:45:27.176Z,89.74
2022-09-15T02:47:59.879Z,89.56
2022-09-15T02:50:31.114Z,89.28
2022-09-15T02:53:00.962Z,89.11
2022-09-15T02:55:31.154Z,88.92
2022-09-15T02:58:01.739Z,88.45
2022-09-15T03:00:32.148Z,88.02
2022-09-15T03:03:04.571Z,87.72
2022-09-15T03:05:34.261Z,87.48
2022-09-15T03:08:04.213Z,87.01
2022-09-15T03:10:34.460Z,86.83
2022-09-15T03:13:05.131Z,86.30
2022-09-15T03:15:34.853Z,86.02
2022-09-15T03:18:07.972Z,85.65
2022-09-15T03:20:37.673Z,85.44
2022-09-15T03:23:07.356Z,85.26
2022-09-15T03:25:37.017Z,85.12
2022-09-15T03:28:06.681Z,85.04
2022-09-15T03:30:36.357Z,84.82
2022-09-15T03:33:09.240Z,84.62
2022-09-15T03:35:38.946Z,84.95
2022-09-15T03:38:08.601Z,84.95
2022-09-15T03:40:38.276Z,84.96
2022-09-15T03:43:07.975Z,84.96
2022-09-15T03:45:37.796Z,84.89
2022-09-15T03:48:10.646Z,84.63
2022-09-15T03:50:40.339Z,84.66
2022-09-15T03:53:10.128Z,84.37
2022-09-15T03:55:39.824Z,84.28
2022-09-15T03:58:09.475Z,83.74
2022-09-15T04:00:39.226Z,83.58
2022-09-15T04:03:11.778Z,83.35
2022-09-15T04:05:42.291Z,83.37
2022-09-15T04:08:16.768Z,83.08
2022-09-15T04:10:46.481Z,82.91
2022-09-15T04:13:16.221Z,82.80
2022-09-15T04:15:46.552Z,82.74
2022-09-15T04:18:18.930Z,82.74
2022-09-15T04:20:48.630Z,82.70
2022-09-15T04:23:18.301Z,82.63
2022-09-15T04:25:56.923Z,82.59
2022-09-15T04:28:27.279Z,82.63
2022-09-15T04:30:57.760Z,82.45
2022-09-15T04:33:30.022Z,82.34
2022-09-15T04:36:02.105Z,82.14
2022-09-15T04:38:32.035Z,81.92
2022-09-15T04:41:02.170Z,81.38
2022-09-15T04:43:32.309Z,81.19
2022-09-15T04:46:02.334Z,81.05
2022-09-15T04:48:35.284Z,80.73
2022-09-15T04:51:06.017Z,80.75
2022-09-15T04:53:35.834Z,80.66
2022-09-15T04:56:07.464Z,80.57
2022-09-15T04:58:39.915Z,80.39
2022-09-15T05:01:13.961Z,80.06
2022-09-15T05:03:46.883Z,80.00
2022-09-15T05:06:19.045Z,80.02
2022-09-15T05:08:50.972Z,79.89
2022-09-15T05:11:21.532Z,79.67
2022-09-15T05:13:51.623Z,79.84
2022-09-15T05:16:23.816Z,79.53
2022-09-15T05:18:57.585Z,79.63
2022-09-15T05:21:27.525Z,79.56
2022-09-15T05:23:57.576Z,79.67
2022-09-15T05:26:29.312Z,79.79
2022-09-15T05:29:00.049Z,79.77
2022-09-15T05:31:31.730Z,80.05
2022-09-15T05:34:05.536Z,80.05
2022-09-15T05:36:35.730Z,80.27
2022-09-15T05:39:05.400Z,80.28
2022-09-15T05:41:35.116Z,80.40
2022-09-15T05:44:05.583Z,80.49
2022-09-15T05:46:35.326Z,80.58
2022-09-15T05:49:08.882Z,80.66
2022-09-15T05:51:39.312Z,80.69
2022-09-15T05:54:09.431Z,80.61
2022-09-15T05:56:39.105Z,80.45
2022-09-15T05:59:08.989Z,80.30
2022-09-15T06:01:38.729Z,80.29
2022-09-15T06:04:12.553Z,80.26
2022-09-15T06:06:42.262Z,80.21
2022-09-15T06:09:12.003Z,80.28
2022-09-15T06:11:41.684Z,80.31
2022-09-15T06:14:13.479Z,80.47
2022-09-15T06:16:43.933Z,80.48
2022-09-15T06:19:16.269Z,80.70
2022-09-15T06:21:46.166Z,80.51
2022-09-15T06:24:15.910Z,80.47
2022-09-15T06:26:45.634Z,80.50
2022-09-15T06:29:15.865Z,80.68
2022-09-15T06:31:45.620Z,80.69
2022-09-15T06:34:18.245Z,80.78
2022-09-15T06:36:47.928Z,80.69
2022-09-15T06:39:17.746Z,80.77
2022-09-15T06:42:01.721Z,80.71
2022-09-15T06:44:32.265Z,81.04
2022-09-15T06:47:01.972Z,81.00
2022-09-15T06:49:34.293Z,81.11
2022-09-15T06:52:05.305Z,81.30
2022-09-15T06:54:35.283Z,81.38
2022-09-15T06:57:04.988Z,81.67
2022-09-15T06:59:34.688Z,81.58
2022-09-15T07:02:05.378Z,81.84
2022-09-15T07:04:40.225Z,81.96
2022-09-15T07:07:09.923Z,82.20
2022-09-15T07:09:41.441Z,82.55
2022-09-15T07:12:11.634Z,82.77
2022-09-15T07:14:41.354Z,83.24
2022-09-15T07:17:11.181Z,83.47
2022-09-15T07:19:43.485Z,83.81
2022-09-15T07:22:13.954Z,84.11
2022-09-15T07:24:43.630Z,84.11
2022-09-15T07:27:13.409Z,84.25
2022-09-15T07:29:43.191Z,84.24
2022-09-15T07:32:12.913Z,84.38
2022-09-15T07:34:45.277Z,84.31
2022-09-15T07:37:16.342Z,84.37
2022-09-15T07:39:46.446Z,84.66
2022-09-15T07:42:16.270Z,84.76
2022-09-15T07:44:45.953Z,84.89
2022-09-15T07:47:15.640Z,85.03
2022-09-15T07:49:47.952Z,85.08
2022-09-15T07:52:17.652Z,85.23
2022-09-15T07:54:47.341Z,85.43
2022-09-15T07:57:17.011Z,85.58
2022-09-15T07:59:46.757Z,85.54
2022-09-15T08:02:20.062Z,85.58
2022-09-15T08:04:53.259Z,85.36
2022-09-15T08:07:23.061Z,85.31
2022-09-15T08:09:52.784Z,85.11
2022-09-15T08:12:22.460Z,84.89
2022-09-15T08:14:52.219Z,84.41
2022-09-15T08:17:21.905Z,83.93
2022-09-15T08:19:54.169Z,83.34
2022-09-15T08:22:23.949Z,83.00
2022-09-15T08:24:53.620Z,82.60
2022-09-15T08:27:23.319Z,82.62
2022-09-15T08:29:53.022Z,82.96
2022-09-15T08:32:22.841Z,83.43
2022-09-15T08:34:55.183Z,83.67
2022-09-15T08:37:25.024Z,83.82
2022-09-15T08:39:54.919Z,83.61
2022-09-15T08:42:29.217Z,83.74
2022-09-15T08:45:02.457Z,83.65
2022-09-15T08:47:36.995Z,83.80
2022-09-15T08:50:17.495Z,83.78
2022-09-15T08:52:52.147Z,83.68
2022-09-15T08:55:36.686Z,84.36
2022-09-15T08:58:06.940Z,84.69
2022-09-15T09:00:37.000Z,85.45
2022-09-15T09:03:37.834Z,86.04
2022-09-15T09:06:19.599Z,86.85
2022-09-15T09:09:11.526Z,87.45
2022-09-15T09:11:55.063Z,88.06
2022-09-15T09:14:34.233Z,88.66
2022-09-15T09:17:21.432Z,89.18
2022-09-15T09:20:13.802Z,89.84
2022-09-15T09:22:49.121Z,90.33
2022-09-15T09:25:27.695Z,91.04
2022-09-15T09:27:59.782Z,91.40
2022-09-15T09:30:34.155Z,91.85
2022-09-15T09:33:18.052Z,92.39
2022-09-15T09:35:49.282Z,92.71
2022-09-15T09:38:28.059Z,93.09
2022-09-15T09:41:02.122Z,93.36
2022-09-15T09:43:33.348Z,93.77
2022-09-15T09:46:03.152Z,94.18
2022-09-15T09:48:33.853Z,94.66
2022-09-15T09:51:03.686Z,94.79
2022-09-15T09:53:37.028Z,95.14
2022-09-15T09:56:25.465Z,95.49
2022-09-15T09:58:55.469Z,95.74
2022-09-15T10:01:28.511Z,95.99
2022-09-15T10:04:19.879Z,96.17
2022-09-15T10:06:50.169Z,96.37
2022-09-15T10:09:22.782Z,96.31
2022-09-15T10:11:54.763Z,96.47
2022-09-15T10:14:30.673Z,96.51
2022-09-15T10:17:03.726Z,96.75
2022-09-15T10:19:36.626Z,96.81
2022-09-15T10:22:07.737Z,96.89
2022-09-15T10:24:42.961Z,97.26
2022-09-15T10:27:22.030Z,97.61
2022-09-15T10:29:51.755Z,97.90
2022-09-15T10:32:28.162Z,98.04
2022-09-15T10:35:06.840Z,98.52
2022-09-15T10:37:52.668Z,98.87
2022-09-15T10:40:49.230Z,99.30
2022-09-15T10:43:34.909Z,99.53
2022-09-15T10:46:08.322Z,99.98
2022-09-15T10:49:01.150Z,100.00
2022-09-15T10:51:46.562Z,100.00
2022-09-15T10:54:34.481Z,100.00
2022-09-15T10:57:19.805Z,100.00
2022-09-15T11:00:00.700Z,100.00
2022-09-15T11:02:49.937Z,100.00
2022-09-15T11:05:58.775Z,100.00
2022-09-15T11:08:54.296Z,100.00
2022-09-15T11:11:33.493Z,100.00
2022-09-15T11:14:21.131Z,100.00
2022-09-15T11:17:06.695Z,100.00
2022-09-15T11:19:59.072Z,100.00
2022-09-15T11:22:35.426Z,100.00
2022-09-15T11:25:09.110Z,100.00
2022-09-15T11:27:45.234Z,100.00
2022-09-15T11:30:22.563Z,100.00
2022-09-15T11:32:58.450Z,100.00
2022-09-15T11:35:45.378Z,100.00
2022-09-15T11:38:29.699Z,100.00
2022-09-15T11:41:07.800Z,99.71
2022-09-15T11:43:46.235Z,99.21
2022-09-15T11:46:26.116Z,99.10
2022-09-15T11:49:02.734Z,98.75
2022-09-15T11:51:42.322Z,98.49
2022-09-15T11:54:18.757Z,98.33
2022-09-15T11:56:50.169Z,97.96
2022-09-15T11:59:28.777Z,97.68
2022-09-15T12:02:12.960Z,97.42
2022-09-15T12:04:49.743Z,97.34
2022-09-15T12:07:28.973Z,97.01
2022-09-15T12:09:59.514Z,96.81
2022-09-15T12:12:30.725Z,96.59
2022-09-15T12:15:01.803Z,96.08
2022-09-15T12:17:40.962Z,95.58
2022-09-15T12:20:20.072Z,95.01
2022-09-15T12:22:56.705Z,94.36
2022-09-15T12:25:31.421Z,93.84
2022-09-15T12:31:17.129Z,92.74
2022-09-15T12:33:57.455Z,92.19
2022-09-15T12:36:47.069Z,91.92
2022-09-15T12:39:27.138Z,91.14
2022-09-15T12:41:59.597Z,90.65
2022-09-15T12:44:37.402Z,90.11
2022-09-15T12:47:18.665Z,89.98
2022-09-15T12:49:53.769Z,89.78
2022-09-15T12:52:26.975Z,89.35
2022-09-15T12:55:00.900Z,89.22
2022-09-15T12:57:34.370Z,88.96
2022-09-15T13:00:20.212Z,88.61
2022-09-15T13:02:51.061Z,88.66
2022-09-15T13:06:14.244Z,88.10
2022-09-15T13:09:18.957Z,87.93
2022-09-15T13:11:54.305Z,88.12
2022-09-15T13:14:30.708Z,88.36
2022-09-15T13:17:05.503Z,88.56
2022-09-15T13:19:44.276Z,89.05
2022-09-15T13:22:24.122Z,89.49
2022-09-15T13:25:01.413Z,89.82
2022-09-15T13:27:40.638Z,90.21
2022-09-15T13:30:26.986Z,90.46
2022-09-15T13:33:03.777Z,90.84
2022-09-15T13:35:50.702Z,91.27
2022-09-15T13:38:42.737Z,91.62
2022-09-15T13:41:34.864Z,91.96
2022-09-15T13:44:28.227Z,92.52
2022-09-15T13:47:10.756Z,92.79
2022-09-15T13:49:51.209Z,93.29
2022-09-15T13:52:32.786Z,93.81
2022-09-15T13:55:21.720Z,94.36
2022-09-15T14:00:59.299Z,95.35
2022-09-15T14:03:37.356Z,95.61
2022-09-15T14:06:14.938Z,96.15
2022-09-15T14:08:46.818Z,96.51
2022-09-15T14:11:18.547Z,96.88
2022-09-15T14:13:50.600Z,97.03
2022-09-15T14:16:34.051Z,97.49
2022-09-15T14:19:06.116Z,97.69
2022-09-15T14:21:37.018Z,97.95
2022-09-15T14:24:09.086Z,98.30
2022-09-15T14:26:39.383Z,98.39
2022-09-15T14:29:10.197Z,98.82
2022-09-15T14:31:43.917Z,98.88
2022-09-15T14:34:20.220Z,99.12
2022-09-15T14:37:02.338Z,99.46
2022-09-15T14:39:33.677Z,99.60
2022-09-15T14:42:12.334Z,99.80
2022-09-15T14:47:35.380Z,99.85
2022-09-15T14:50:10.397Z,100.00
2022-09-15T14:52:43.502Z,100.00
2022-09-15T14:55:19.037Z,100.00
2022-09-15T14:57:58.406Z,100.00
2022-09-15T15:00:34.139Z,100.00
2022-09-15T15:03:21.033Z,100.00
2022-09-15T15:06:02.454Z,100.00
2022-09-15T15:08:41.052Z,100.00
2022-09-15T15:11:12.024Z,100.00
2022-09-15T15:13:45.739Z,100.00
2022-09-15T15:16:23.544Z,100.00
2022-09-15T15:18:57.311Z,99.81
2022-09-15T15:21:42.117Z,99.45
2022-09-15T15:24:22.819Z,98.84
2022-09-15T15:26:54.407Z,98.48
2022-09-15T15:29:43.507Z,97.88
2022-09-15T15:32:18.171Z,97.28
2022-09-15T15:34:55.876Z,96.88
2022-09-15T15:37:29.772Z,96.23
2022-09-15T15:40:01.996Z,95.67
2022-09-15T15:42:32.315Z,95.23
2022-09-15T15:45:07.081Z,94.89
2022-09-15T15:47:39.606Z,94.44
2022-09-15T15:50:17.616Z,94.17
2022-09-15T15:52:47.441Z,94.21
2022-09-15T15:55:18.882Z,93.94
2022-09-15T15:57:51.373Z,93.98
2022-09-15T16:00:24.959Z,93.93
2022-09-15T16:02:55.793Z,93.94
2022-09-15T16:05:30.414Z,93.71
2022-09-15T16:08:04.937Z,93.50
2022-09-15T16:10:43.468Z,93.29
2022-09-15T16:13:16.424Z,93.08
2022-09-15T16:15:46.666Z,93.08
2022-09-15T16:18:17.220Z,92.91
2022-09-15T16:20:49.636Z,92.91
2022-09-15T16:23:21.595Z,92.84
2022-09-15T16:25:55.329Z,92.94
2022-09-15T16:28:25.008Z,93.00
2022-09-15T16:30:54.706Z,92.85
2022-09-15T16:33:25.107Z,92.47
2022-09-15T16:36:06.576Z,92.08
2022-09-15T16:38:37.317Z,91.86
2022-09-15T16:41:09.229Z,91.54
2022-09-15T16:43:38.908Z,91.52
2022-09-15T16:46:09.250Z,91.58
2022-09-15T16:48:38.997Z,91.78
2022-09-15T16:51:25.239Z,91.93
2022-09-15T16:53:57.053Z,92.21
2022-09-15T16:56:27.173Z,92.36
2022-09-15T16:59:00.260Z,92.58
2022-09-15T17:01:30.817Z,92.97
2022-09-15T17:04:00.674Z,93.21
2022-09-15T17:06:33.041Z,93.31
2022-09-15T17:09:02.758Z,93.55
2022-09-15T17:11:32.591Z,93.79
2022-09-15T17:14:02.336Z,93.92
2022-09-15T17:16:32.309Z,94.01
2022-09-15T17:19:02.125Z,94.01
2022-09-15T17:21:34.442Z,94.20
2022-09-15T17:24:04.304Z,94.28
2022-09-15T17:26:34.106Z,94.29
2022-09-15T17:29:03.840Z,94.59
2022-09-15T17:31:33.567Z,94.67
2022-09-15T17:34:03.573Z,94.95
2022-09-15T17:36:37.406Z,95.27
2022-09-15T17:39:07.145Z,95.52
2022-09-15T17:41:38.709Z,95.72
2022-09-15T17:44:11.191Z,95.93
2022-09-15T17:46:41.007Z,96.37
2022-09-15T17:49:10.765Z,96.54
2022-09-15T17:51:43.122Z,96.77
2022-09-15T17:54:13.614Z,96.88
2022-09-15T17:56:43.345Z,97.08
2022-09-15T17:59:15.679Z,97.10
2022-09-15T18:01:46.167Z,97.16
2022-09-15T18:04:15.967Z,97.46
2022-09-15T18:06:48.488Z,97.58
2022-09-15T18:09:18.161Z,97.75
2022-09-15T18:11:47.921Z,97.79
2022-09-15T18:14:17.844Z,97.90
2022-09-15T18:16:50.541Z,97.94
2022-09-15T18:19:20.220Z,98.25
2022-09-15T18:21:56.719Z,98.44
2022-09-15T18:24:26.448Z,98.61
2022-09-15T18:26:56.268Z,98.71
2022-09-15T18:29:26.873Z,99.01
2022-09-15T18:31:58.157Z,99.06
2022-09-15T18:34:28.088Z,99.26
2022-09-15T18:37:01.530Z,99.62
2022-09-15T18:39:31.362Z,99.83
2022-09-15T18:42:01.222Z,99.89
2022-09-15T18:44:30.946Z,100.00
2022-09-15T18:47:00.616Z,100.00
2022-09-15T18:49:30.285Z,100.00
2022-09-15T18:52:02.700Z,100.00
2022-09-15T18:54:34.881Z,100.00
2022-09-15T18:57:04.588Z,100.00
2022-09-15T18:59:34.231Z,100.00
2022-09-15T19:02:04.033Z,100.00
2022-09-15T19:04:38.522Z,100.00
2022-09-15T19:07:13.902Z,100.00
2022-09-15T19:09:44.723Z,100.00
2022-09-15T19:12:14.479Z,100.00
2022-09-15T19:14:46.572Z,100.00
2022-09-15T19:17:17.017Z,100.00
2022-09-15T19:19:46.766Z,100.00
2022-09-15T19:22:19.116Z,100.00
2022-09-15T19:24:48.832Z,100.00
2022-09-15T19:27:18.537Z,100.00
2022-09-15T19:29:48.269Z,100.00
2022-09-15T19:32:19.825Z,100.00
2022-09-15T19:34:50.016Z,100.00
2022-09-15T19:37:24.241Z,100.00
2022-09-15T19:39:54.953Z,100.00
2022-09-15T19:42:24.929Z,100.00
2022-09-15T19:44:54.811Z,100.00
2022-09-15T19:47:24.680Z,100.00
2022-09-15T19:49:55.216Z,100.00
2022-09-15T19:52:27.789Z,100.00
2022-09-15T19:54:57.502Z,100.00
2022-09-15T19:57:27.540Z,100.00
2022-09-15T19:59:57.259Z,100.00
2022-09-15T20:02:27.056Z,100.00
2022-09-15T20:07:44.951Z,100.00
2022-09-15T20:10:14.753Z,100.00
2022-09-15T20:12:44.416Z,100.00
2022-09-15T20:15:14.360Z,100.00
2022-09-15T20:17:44.044Z,100.00
2022-09-15T20:20:14.345Z,100.00
2022-09-15T20:22:46.633Z,100.00
2022-09-15T20:25:16.363Z,100.00
2022-09-15T20:27:47.748Z,100.00
2022-09-15T20:30:17.474Z,100.00
2022-09-15T20:32:47.167Z,100.00
2022-09-15T20:35:17.674Z,100.00
2022-09-15T20:37:49.990Z,100.00
2022-09-15T20:40:19.795Z,100.00
2022-09-15T20:42:50.308Z,100.00
2022-09-15T20:45:19.969Z,100.00
2022-09-15T20:47:49.666Z,100.00
2022-09-15T20:50:19.356Z,100.00
2022-09-15T20:52:51.677Z,100.00
2022-09-15T20:55:21.405Z,100.00
2022-09-15T20:57:51.079Z,100.00
2022-09-15T21:00:21.991Z,100.00
2022-09-15T21:02:54.262Z,100.00
2022-09-15T21:05:23.936Z,100.00
2022-09-15T21:07:56.232Z,100.00
2022-09-15T21:10:26.338Z,100.00
2022-09-15T21:12:56.033Z,100.00
2022-09-15T21:15:26.193Z,100.00
2022-09-15T21:17:55.929Z,100.00
2022-09-15T21:20:25.637Z,100.00
2022-09-15T21:23:00.005Z,100.00
2022-09-15T21:25:29.741Z,100.00
2022-09-15T21:27:59.800Z,100.00
2022-09-15T21:30:29.535Z,100.00
2022-09-15T21:32:59.212Z,100.00
2022-09-15T21:35:28.911Z,100.00
2022-09-15T21:38:01.905Z,100.00
2022-09-15T21:40:31.653Z,100.00
2022-09-15T21:43:01.519Z,100.00
2022-09-15T21:45:31.233Z,100.00
2022-09-15T21:48:00.924Z,100.00
2022-09-15T21:50:30.640Z,100.00
2022-09-15T21:53:03.010Z,100.00
2022-09-15T21:55:32.745Z,100.00
2022-09-15T21:58:02.453Z,100.00
2022-09-15T22:00:32.170Z,100.00
2022-09-15T22:03:01.898Z,100.00
2022-09-15T22:05:32.284Z,100.00
2022-09-15T22:08:05.227Z,100.00
2022-09-15T22:10:34.933Z,100.00
2022-09-15T22:13:04.624Z,100.00
2022-09-15T22:15:34.524Z,100.00
2022-09-15T22:18:04.290Z,100.00
2022-09-15T22:20:33.977Z,100.00
2022-09-15T22:23:06.337Z,100.00
2022-09-15T22:25:36.238Z,100.00
2022-09-15T22:28:06.077Z,100.00
2022-09-15T22:30:35.815Z,100.00
2022-09-15T22:33:05.521Z,100.00
2022-09-15T22:35:35.342Z,100.00
2022-09-15T22:38:07.621Z,100.00
2022-09-15T22:40:37.415Z,100.00
2022-09-15T22:43:07.148Z,100.00
2022-09-15T22:45:36.918Z,100.00
2022-09-15T22:48:06.889Z,100.00
2022-09-15T22:50:36.742Z,100.00
2022-09-15T22:53:09.249Z,100.00
2022-09-15T22:55:38.925Z,100.00
2022-09-15T22:58:08.732Z,100.00
2022-09-15T23:00:40.922Z,100.00
2022-09-15T23:03:11.555Z,100.00
2022-09-15T23:05:41.434Z,100.00
2022-09-15T23:08:14.730Z,100.00
2022-09-15T23:10:44.425Z,100.00
2022-09-15T23:13:14.874Z,100.00
2022-09-15T23:15:45.911Z,100.00
2022-09-15T23:18:15.619Z,100.00
2022-09-15T23:20:45.526Z,100.00
2022-09-15T23:23:17.847Z,100.00
2022-09-15T23:25:47.536Z,100.00
2022-09-15T23:28:17.233Z,100.00
2022-09-15T23:30:46.927Z,100.00
2022-09-15T23:33:16.592Z,100.00
2022-09-15T23:35:46.282Z,100.00
2022-09-15T23:38:20.121Z,100.00
2022-09-15T23:40:51.101Z,100.00
2022-09-15T23:43:21.306Z,100.00
2022-09-15T23:45:51.356Z,100.00
2022-09-15T23:48:21.120Z,100.00
2022-09-15T23:50:51.628Z,100.00
2022-09-15T23:53:24.246Z,100.00
2022-09-15T23:55:53.956Z,100.00
2022-09-15T23:58:23.642Z,100.00
